Frankford, Delaware
Current Conditions -  °F | °C
As of 1:54 PM on Friday 24 Oct 2014 (Local Time) from KGED Reporting Station
Clear Clear  
Wind Chill: 68°   Ceiling: Unl
Heat Index: 68°   Visibility: 10mi
Dew Point: 46°   Wind: 8mph
Humidity: 45%   Direction: 350°N
Pressure: 29.85"   Gusts: 17mph
Location:  38.52°N, 75.23°W
Report Text: KGED 241754Z AUTO 35007G15KT 320V060 10SM CLR 20/08 A2985 RMK AO2 SLP105 T02000078 10200 20122 58022
Loading
Personal Weather Stations






























Interactive Weather Map
Tropical Storm Tracking
New forecast layout! Learn more

10-Day Weather Forecast

Advertisements
Track Severe Weather on mobile